| time (UTC) | temp C | wind direction | speed KPH | gust KPH | rain 1hr cm | rain 24hr cm | rain mn cm | humidity % | barometer mb |
| 20260506175443 | 20 | 238 | 4.8 | 4.8 | 0.00 | 0.00 | 0.00 | 60 | 1019.7 |
| 20260506174444 | 20 | 247 | 1.6 | 1.6 | 0.00 | 0.00 | 0.00 | 60 | 1019.6 |
| 20260506173444 | 19 | 242 | 6.4 | 8.0 | 0.00 | 0.00 | 0.00 | 62 | 1019.7 |
| 20260506172444 | 19 | 268 | 8.0 | 9.7 | 0.00 | 0.00 | 0.00 | 65 | 1019.5 |
| 20260506171443 | 19 | 214 | 4.8 | 4.8 | 0.00 | 0.00 | 0.00 | 64 | 1019.7 |
| 20260506170443 | 18 | 236 | 6.4 | 8.0 | 0.00 | 0.00 | 0.00 | 65 | 1019.8 |
| 20260506165440 | 18 | 187 | 3.2 | 3.2 | 0.00 | 0.00 | 0.00 | 66 | 1020.0 |
| 20260506164438 | 17 | 240 | 1.6 | 3.2 | 0.00 | 0.00 | 0.00 | 69 | 1019.9 |
| 20260506163437 | 17 | 228 | 0.0 | 1.6 | 0.00 | 0.00 | 0.00 | 70 | 1019.9 |
| 20260506162436 | 17 | 202 | 0.0 | 1.6 | 0.00 | 0.00 | 0.00 | 68 | 1020.0 |
| 20260506161431 | 17 | 112 | 1.6 | 1.6 | 0.00 | 0.00 | 0.00 | 70 | 1019.9 |
| 20260506160431 | 17 | 203 | 0.0 | 1.6 | 0.00 | 0.00 | 0.00 | 70 | 1020.1 |
| 20260506155427 | 16 | 149 | 6.4 | 8.0 | 0.00 | 0.00 | 0.00 | 71 | 1020.0 |
| 20260506153554 | 16 | 129 | 6.4 | 8.0 | 0.00 | 0.00 | 0.00 | 70 | 1020.0 |
| 20260506152554 | 15 | 146 | 3.2 | 3.2 | 0.00 | 0.00 | 0.00 | 72 | 1019.9 |
| 20260506151549 | 15 | 185 | 3.2 | 3.2 | 0.00 | 0.00 | 0.00 | 72 | 1019.9 |
| 20260506150548 | 15 | 71 | 3.2 | 3.2 | 0.00 | 0.00 | 0.00 | 71 | 1020.0 |
| 20260506145547 | 15 | 47 | 1.6 | 1.6 | 0.00 | 0.00 | 0.00 | 74 | 1019.9 |
| 20260506144547 | 15 | 1 | 3.2 | 3.2 | 0.00 | 0.00 | 0.00 | 73 | 1019.7 |
| 20260506143542 | 14 | 359 | 0.0 | 1.6 | 0.00 | 0.00 | 0.00 | 75 | 1019.8 |
| 20260506142538 | 15 | 359 | 1.6 | 1.6 | 0.00 | 0.00 | 0.00 | 74 | 1019.9 |
| 20260506141533 | 13 | 359 | 0.0 | 0.0 | 0.00 | 0.00 | 0.00 | 78 | 1019.7 |
| 20260506140529 | 12 | 359 | 1.6 | 1.6 | 0.00 | 0.00 | 0.00 | 81 | 1019.5 |
| 20260506135528 | 12 | 359 | 0.0 | 0.0 | 0.00 | 0.00 | 0.00 | 82 | 1019.7 |
| 20260506134527 | 11 | 359 | 0.0 | 0.0 | 0.00 | 0.00 | 0.00 | 84 | 1019.5 |
| 20260506133526 | 11 | 0 | 0.0 | 1.6 | 0.00 | 0.00 | 0.00 | 86 | 1019.2 |
| 20260506132526 | 10 | 358 | 0.0 | 0.0 | 0.00 | 0.00 | 0.00 | 89 | 1019.2 |
| 20260506131526 | 10 | 342 | 0.0 | 1.6 | 0.00 | 0.00 | 0.00 | 90 | 1019.2 |
| 20260506130525 | 10 | 348 | 0.0 | 0.0 | 0.00 | 0.00 | 0.00 | 90 | 1019.0 |
| 20260506125521 | 10 | 349 | 0.0 | 0.0 | 0.00 | 0.00 | 0.00 | 90 | 1018.9 |
| 20260506124516 | 10 | 349 | 0.0 | 0.0 | 0.00 | 0.00 | 0.00 | 90 | 1018.6 |
| 20260506123512 | 10 | 349 | 0.0 | 0.0 | 0.00 | 0.00 | 0.00 | 90 | 1018.7 |
| 20260506122512 | 10 | 348 | 1.6 | 1.6 | 0.00 | 0.00 | 0.00 | 90 | 1018.6 |
| 20260506121507 | 10 | 348 | 0.0 | 0.0 | 0.00 | 0.00 | 0.00 | 90 | 1018.7 |
| 20260506120507 | 10 | 349 | 0.0 | 0.0 | 0.00 | 0.00 | 0.00 | 89 | 1018.7 |
| 20260506115502 | 10 | 348 | 0.0 | 0.0 | 0.00 | 0.00 | 0.00 | 89 | 1018.5 |
| 20260506114457 | 10 | 343 | 0.0 | 0.0 | 0.00 | 0.00 | 0.00 | 89 | 1018.6 |
| 20260506113453 | 10 | 329 | 1.6 | 1.6 | 0.00 | 0.00 | 0.00 | 89 | 1018.6 |
| 20260506112453 | 10 | 329 | 0.0 | 0.0 | 0.00 | 0.00 | 0.00 | 88 | 1018.4 |
| 20260506111448 | 11 | 329 | 0.0 | 0.0 | 0.00 | 0.00 | 0.00 | 88 | 1018.6 |
| 20260506110449 | 11 | 329 | 0.0 | 0.0 | 0.00 | 0.00 | 0.00 | 88 | 1018.6 |
| 20260506105447 | 11 | 329 | 0.0 | 0.0 | 0.00 | 0.00 | 0.00 | 87 | 1018.2 |
| 20260506104443 | 11 | 329 | 0.0 | 0.0 | 0.00 | 0.00 | 0.00 | 87 | 1018.1 |
| 20260506103438 | 11 | 329 | 0.0 | 1.6 | 0.00 | 0.00 | 0.00 | 86 | 1018.2 |
| 20260506102433 | 11 | 336 | 1.6 | 1.6 | 0.00 | 0.00 | 0.00 | 85 | 1017.9 |
| 20260506101431 | 11 | 353 | 0.0 | 1.6 | 0.00 | 0.00 | 0.00 | 85 | 1017.9 |
| 20260506100427 | 11 | 352 | 0.0 | 0.0 | 0.00 | 0.00 | 0.00 | 86 | 1017.6 |
| 20260506095423 | 11 | 1 | 0.0 | 0.0 | 0.00 | 0.00 | 0.00 | 87 | 1017.7 |
| 20260506094418 | 11 | 356 | 1.6 | 1.6 | 0.00 | 0.00 | 0.00 | 87 | 1017.5 |
| 20260506093419 | 11 | 351 | 0.0 | 0.0 | 0.00 | 0.00 | 0.00 | 87 | 1017.9 |
| 20260506092414 | 11 | 351 | 1.6 | 3.2 | 0.00 | 0.00 | 0.00 | 86 | 1017.7 |
| 20260506091414 | 11 | 350 | 1.6 | 1.6 | 0.00 | 0.00 | 0.00 | 85 | 1017.8 |
| 20260506090415 | 12 | 347 | 1.6 | 1.6 | 0.00 | 0.00 | 0.00 | 83 | 1017.9 |
| 20260506085414 | 12 | 352 | 3.2 | 3.2 | 0.00 | 0.00 | 0.00 | 81 | 1017.9 |
| 20260506084413 | 12 | 329 | 1.6 | 1.6 | 0.00 | 0.00 | 0.00 | 81 | 1018.1 |
| 20260506083413 | 12 | 331 | 3.2 | 3.2 | 0.00 | 0.00 | 0.00 | 83 | 1017.9 |
| 20260506082413 | 12 | 341 | 3.2 | 3.2 | 0.00 | 0.00 | 0.00 | 85 | 1017.8 |
| 20260506081413 | 12 | 347 | 0.0 | 0.0 | 0.00 | 0.00 | 0.00 | 85 | 1017.7 |
| 20260506080412 | 12 | 347 | 0.0 | 0.0 | 0.00 | 0.00 | 0.00 | 84 | 1017.9 |
| 20260506073402 | 12 | 349 | 0.0 | 0.0 | 0.00 | 0.00 | 0.00 | 83 | 1017.8 |
| 20260506072402 | 12 | 349 | 1.6 | 1.6 | 0.00 | 0.00 | 0.00 | 82 | 1017.6 |
| 20260506071358 | 13 | 348 | 1.6 | 1.6 | 0.00 | 0.00 | 0.00 | 81 | 1017.5 |
| 20260506070357 | 13 | 355 | 1.6 | 3.2 | 0.00 | 0.00 | 0.00 | 81 | 1017.4 |
| 20260506062340 | 13 | 355 | 1.6 | 1.6 | 0.00 | 0.00 | 0.00 | 79 | 1016.9 |
| 20260506061339 | 14 | 355 | 1.6 | 1.6 | 0.00 | 0.00 | 0.00 | 77 | 1016.9 |
| 20260506060335 | 15 | 349 | 3.2 | 3.2 | 0.00 | 0.00 | 0.00 | 75 | 1017.0 |
| 20260506051324 | 14 | 1 | 1.6 | 1.6 | 0.00 | 0.00 | 0.00 | 75 | 1016.2 |
| 20260506050319 | 15 | 353 | 3.2 | 3.2 | 0.00 | 0.00 | 0.00 | 75 | 1016.4 |
| 20260506044313 | 15 | 343 | 0.0 | 1.6 | 0.00 | 0.00 | 0.00 | 70 | 1016.1 |
| 20260506043313 | 16 | 337 | 1.6 | 3.2 | 0.00 | 0.00 | 0.00 | 68 | 1015.8 |
| 20260506042310 | 16 | 332 | 0.0 | 0.0 | 0.00 | 0.00 | 0.00 | 66 | 1015.7 |
| 20260506041311 | 16 | 332 | 1.6 | 1.6 | 0.00 | 0.00 | 0.00 | 65 | 1015.6 |
| 20260506040305 | 16 | 332 | 3.2 | 3.2 | 0.00 | 0.00 | 0.00 | 64 | 1015.4 |
| 20260506035306 | 16 | 324 | 1.6 | 1.6 | 0.00 | 0.00 | 0.00 | 64 | 1015.4 |
| 20260506034259 | 17 | 306 | 4.8 | 8.0 | 0.00 | 0.00 | 0.00 | 63 | 1015.4 |
| 20260506033259 | 17 | 325 | 3.2 | 3.2 | 0.00 | 0.00 | 0.00 | 62 | 1015.3 |
| 20260506032258 | 17 | 336 | 4.8 | 4.8 | 0.00 | 0.00 | 0.00 | 60 | 1015.2 |
| 20260506031258 | 17 | 325 | 4.8 | 4.8 | 0.00 | 0.00 | 0.00 | 60 | 1015.1 |
| 20260506030254 | 18 | 335 | 4.8 | 8.0 | 0.00 | 0.00 | 0.00 | 58 | 1014.9 |
| 20260506025253 | 18 | 349 | 6.4 | 8.0 | 0.00 | 0.00 | 0.00 | 57 | 1014.7 |
| 20260506024252 | 18 | 334 | 4.8 | 4.8 | 0.00 | 0.00 | 0.00 | 56 | 1014.7 |
| 20260506023251 | 18 | 353 | 3.2 | 3.2 | 0.00 | 0.00 | 0.00 | 55 | 1014.6 |
| 20260506022246 | 19 | 343 | 6.4 | 8.0 | 0.00 | 0.00 | 0.00 | 54 | 1014.3 |
| 20260506021246 | 20 | 309 | 3.2 | 3.2 | 0.00 | 0.00 | 0.00 | 52 | 1014.4 |
| 20260506020246 | 20 | 342 | 4.8 | 4.8 | 0.00 | 0.00 | 0.00 | 51 | 1014.3 |
| 20260506015247 | 19 | 336 | 3.2 | 4.8 | 0.00 | 0.00 | 0.00 | 52 | 1014.2 |
| 20260506014246 | 19 | 346 | 6.4 | 8.0 | 0.00 | 0.00 | 0.00 | 51 | 1014.4 |
| 20260506013246 | 19 | 338 | 4.8 | 4.8 | 0.00 | 0.00 | 0.00 | 51 | 1014.1 |
| 20260506012244 | 19 | 334 | 4.8 | 4.8 | 0.00 | 0.00 | 0.00 | 51 | 1014.0 |
| 20260506011244 | 20 | 352 | 8.0 | 11.3 | 0.00 | 0.00 | 0.00 | 49 | 1013.9 |
| 20260506010239 | 20 | 14 | 3.2 | 3.2 | 0.00 | 0.00 | 0.00 | 48 | 1013.8 |
| 20260506005239 | 19 | 21 | 1.6 | 1.6 | 0.00 | 0.00 | 0.00 | 50 | 1014.1 |
| 20260506004238 | 20 | 12 | 4.8 | 8.0 | 0.00 | 0.00 | 0.00 | 50 | 1014.2 |
| 20260506003237 | 20 | 9 | 3.2 | 3.2 | 0.00 | 0.00 | 0.00 | 49 | 1013.9 |
| 20260506002235 | 20 | 43 | 4.8 | 8.0 | 0.00 | 0.00 | 0.00 | 49 | 1014.0 |
| 20260506001235 | 20 | 351 | 6.4 | 9.7 | 0.00 | 0.00 | 0.00 | 48 | 1014.0 |
| 20260506000229 | 20 | 334 | 3.2 | 4.8 | 0.00 | 0.00 | 0.00 | 48 | 1014.0 |
| 20260505235229 | 20 | 8 | 3.2 | 8.0 | 0.00 | 0.00 | 0.00 | 47 | 1014.1 |
| 20260505234229 | 20 | 83 | 6.4 | 9.7 | 0.00 | 0.00 | 0.00 | 46 | 1014.1 |
| 20260505233230 | 21 | 299 | 3.2 | 3.2 | 0.00 | 0.00 | 0.00 | 45 | 1014.3 |
| 20260505232230 | 20 | 307 | 3.2 | 3.2 | 0.00 | 0.00 | 0.00 | 46 | 1014.4 |
| 20260505231225 | 20 | 40 | 3.2 | 3.2 | 0.00 | 0.00 | 0.00 | 48 | 1014.3 |
| 20260505230225 | 20 | 291 | 4.8 | 4.8 | 0.00 | 0.00 | 0.00 | 47 | 1014.4 |
| 20260505225225 | 20 | 273 | 4.8 | 4.8 | 0.00 | 0.00 | 0.00 | 45 | 1014.3 |
| 20260505224224 | 21 | 253 | 16.1 | 17.7 | 0.00 | 0.00 | 0.00 | 45 | 1014.5 |
| 20260505223223 | 21 | 289 | 8.0 | 11.3 | 0.00 | 0.00 | 0.00 | 46 | 1014.5 |
| 20260505222221 | 21 | 228 | 11.3 | 12.9 | 0.00 | 0.00 | 0.00 | 46 | 1014.5 |
| 20260505221221 | 20 | 166 | 8.0 | 9.7 | 0.00 | 0.00 | 0.00 | 48 | 1014.4 |
| 20260505220216 | 20 | 243 | 9.7 | 11.3 | 0.00 | 0.00 | 0.00 | 49 | 1014.5 |
| 20260505215211 | 20 | 266 | 12.9 | 16.1 | 0.00 | 0.00 | 0.00 | 48 | 1014.6 |
| 20260505214206 | 20 | 273 | 8.0 | 9.7 | 0.00 | 0.00 | 0.00 | 51 | 1014.6 |
| 20260505213200 | 20 | 180 | 8.0 | 9.7 | 0.00 | 0.00 | 0.00 | 51 | 1014.8 |
| 20260505212159 | 20 | 330 | 9.7 | 9.7 | 0.00 | 0.00 | 0.00 | 50 | 1014.7 |
| 20260505211159 | 20 | 270 | 11.3 | 14.5 | 0.00 | 0.00 | 0.00 | 52 | 1014.8 |
| 20260505210159 | 20 | 19 | 9.7 | 11.3 | 0.00 | 0.00 | 0.00 | 51 | 1014.7 |
| 20260505205154 | 19 | 252 | 8.0 | 11.3 | 0.00 | 0.00 | 0.00 | 54 | 1015.0 |
| 20260505204154 | 18 | 326 | 3.2 | 3.2 | 0.00 | 0.00 | 0.00 | 53 | 1014.8 |
| 20260505203154 | 18 | 28 | 1.6 | 1.6 | 0.00 | 0.00 | 0.00 | 58 | 1014.7 |
| 20260505202152 | 19 | 273 | 6.4 | 8.0 | 0.00 | 0.00 | 0.00 | 58 | 1015.0 |
| 20260505201152 | 19 | 274 | 3.2 | 4.8 | 0.00 | 0.00 | 0.00 | 58 | 1014.9 |
| 20260505200152 | 17 | 265 | 9.7 | 11.3 | 0.00 | 0.00 | 0.00 | 62 | 1015.0 |
| 20260505195152 | 17 | 276 | 12.9 | 12.9 | 0.00 | 0.00 | 0.00 | 62 | 1015.0 |
| 20260505194151 | 17 | 348 | 9.7 | 11.3 | 0.00 | 0.00 | 0.00 | 63 | 1015.2 |
| 20260505193150 | 17 | 322 | 9.7 | 11.3 | 0.00 | 0.00 | 0.00 | 65 | 1015.3 |
| 20260505192146 | 16 | 309 | 4.8 | 4.8 | 0.00 | 0.00 | 0.00 | 69 | 1015.4 |
| 20260505191142 | 16 | 297 | 9.7 | 12.9 | 0.00 | 0.00 | 0.00 | 68 | 1015.3 |
| 20260505190138 | 16 | 293 | 8.0 | 11.3 | 0.00 | 0.00 | 0.00 | 68 | 1015.4 |
| 20260505185137 | 15 | 335 | 8.0 | 11.3 | 0.00 | 0.00 | 0.00 | 70 | 1015.6 |
| 20260505184136 | 15 | 310 | 6.4 | 8.0 | 0.00 | 0.00 | 0.00 | 71 | 1015.5 |
| 20260505183131 | 15 | 318 | 8.0 | 11.3 | 0.00 | 0.00 | 0.00 | 71 | 1015.5 |
| 20260505182129 | 16 | 308 | 9.7 | 12.9 | 0.00 | 0.00 | 0.00 | 69 | 1015.4 |
| 20260505181129 | 15 | 305 | 8.0 | 12.9 | 0.00 | 0.00 | 0.00 | 70 | 1015.4 |
| 20260505180129 | 15 | 316 | 6.4 | 8.0 | 0.00 | 0.00 | 0.00 | 73 | 1015.2 |